createdAt,value
2024-03-12T00:01:30.768Z,71.50
2024-03-12T00:06:33.338Z,71.83
2024-03-12T00:11:36.328Z,78.07
2024-03-12T00:16:41.978Z,85.67
2024-03-12T00:21:45.014Z,70.60
2024-03-12T00:26:49.000Z,65.93
2024-03-12T00:31:52.576Z,74.97
2024-03-12T00:36:55.068Z,75.07
2024-03-12T00:41:57.744Z,65.13
2024-03-12T00:47:02.675Z,60.67
2024-03-12T00:52:05.452Z,63.07
2024-03-12T00:57:07.961Z,66.00
2024-03-12T01:02:13.818Z,59.47
2024-03-12T01:07:17.646Z,61.53
2024-03-12T01:12:20.066Z,44.40
2024-03-12T01:17:23.786Z,57.87
2024-03-12T01:22:26.282Z,63.23
2024-03-12T01:27:28.734Z,37.90
2024-03-12T01:32:32.060Z,68.53
2024-03-12T01:37:35.372Z,67.10
2024-03-12T01:42:37.861Z,71.63
2024-03-12T01:47:40.332Z,73.53
2024-03-12T01:52:44.795Z,64.53
2024-03-12T01:57:48.471Z,69.53
2024-03-12T02:02:53.886Z,70.77
2024-03-12T02:07:56.505Z,68.70
2024-03-12T02:12:58.984Z,63.30
2024-03-12T02:18:01.662Z,56.10
2024-03-12T02:23:04.168Z,71.60
2024-03-12T02:28:07.503Z,66.40
2024-03-12T02:33:10.093Z,67.77
2024-03-12T02:38:14.577Z,61.13
2024-03-12T02:43:17.499Z,63.43
2024-03-12T02:48:19.974Z,58.73
2024-03-12T02:53:22.681Z,58.27
2024-03-12T02:58:27.333Z,42.83
2024-03-12T03:03:29.998Z,54.27
2024-03-12T03:08:32.682Z,59.73
2024-03-12T03:13:35.314Z,62.63
2024-03-12T03:18:38.355Z,53.60
2024-03-12T03:23:42.894Z,60.50
2024-03-12T03:28:45.909Z,56.80
2024-03-12T03:33:48.784Z,56.37
2024-03-12T03:38:51.737Z,60.83
2024-03-12T03:43:54.219Z,57.87
2024-03-12T03:48:59.026Z,52.77
2024-03-12T03:54:02.525Z,58.60
2024-03-12T03:59:06.983Z,64.93
2024-03-12T04:04:12.745Z,65.03
2024-03-12T04:09:16.430Z,55.00
2024-03-12T04:14:19.611Z,68.53
2024-03-12T04:19:22.225Z,58.80
2024-03-12T04:24:26.166Z,66.93
2024-03-12T04:29:29.383Z,66.57
2024-03-12T04:34:33.601Z,59.43
2024-03-12T04:39:37.280Z,71.57
2024-03-12T04:44:39.816Z,65.83
2024-03-12T04:49:42.296Z,64.63
2024-03-12T04:54:44.717Z,81.97
2024-03-12T04:59:49.054Z,73.77
2024-03-12T05:04:51.465Z,80.90
2024-03-12T05:09:54.140Z,76.43
2024-03-12T05:14:56.685Z,68.57
2024-03-12T05:19:59.223Z,51.33
2024-03-12T05:25:03.201Z,68.50
2024-03-12T05:30:12.103Z,66.77
2024-03-12T05:35:23.585Z,53.40
2024-03-12T05:40:31.186Z,69.90
2024-03-12T05:45:52.329Z,70.27
2024-03-12T05:50:56.872Z,70.70
2024-03-12T05:55:59.457Z,68.17
2024-03-12T06:01:03.863Z,64.27
2024-03-12T06:06:08.737Z,60.67
2024-03-12T06:11:11.272Z,63.60
2024-03-12T06:16:13.809Z,39.00
2024-03-12T06:21:17.514Z,75.87
2024-03-12T06:26:20.514Z,70.97
2024-03-12T06:31:23.840Z,67.13
2024-03-12T06:36:26.425Z,76.63
2024-03-12T06:41:28.899Z,73.93
2024-03-12T06:46:31.380Z,62.60
2024-03-12T06:51:34.010Z,77.43
2024-03-12T06:56:43.730Z,70.97
2024-03-12T07:01:46.811Z,68.40
2024-03-12T07:06:49.317Z,77.83
2024-03-12T07:11:51.845Z,71.43
2024-03-12T07:16:56.179Z,72.93
2024-03-12T07:21:58.712Z,61.00
2024-03-12T07:44:01.054Z,70.27
2024-03-12T07:49:05.029Z,68.60
2024-03-12T07:54:07.893Z,57.83
2024-03-12T07:59:10.446Z,50.70
2024-03-12T08:04:14.538Z,55.43
2024-03-12T08:09:17.046Z,56.80
2024-03-12T08:14:19.857Z,58.97
2024-03-12T08:19:26.626Z,62.07
2024-03-12T08:24:30.617Z,59.10
2024-03-12T08:29:33.216Z,60.33
2024-03-12T08:34:38.063Z,50.50
2024-03-12T08:39:40.932Z,58.60
2024-03-12T08:44:44.535Z,58.93
2024-03-12T08:49:47.199Z,55.77
2024-03-12T08:54:49.676Z,55.43
2024-03-12T08:59:52.239Z,64.23
2024-03-12T09:04:55.188Z,61.27
2024-03-12T09:09:59.881Z,58.03
2024-03-12T09:15:03.573Z,68.00
2024-03-12T09:20:12.594Z,61.93
2024-03-12T09:25:18.265Z,58.20
2024-03-12T09:30:21.895Z,64.47
2024-03-12T09:35:26.063Z,52.70
2024-03-12T09:40:29.575Z,48.40
2024-03-12T09:45:33.018Z,63.10
2024-03-12T09:50:36.882Z,64.07
2024-03-12T09:55:41.335Z,58.20
2024-03-12T10:00:45.270Z,55.50
2024-03-12T10:05:47.968Z,61.53
2024-03-12T10:10:53.515Z,64.20
2024-03-12T10:16:03.994Z,50.00
2024-03-12T10:21:08.310Z,46.93
2024-03-12T10:26:18.371Z,51.80
2024-03-12T10:31:21.537Z,51.97
2024-03-12T10:36:32.523Z,65.30
2024-03-12T10:41:35.427Z,66.53
2024-03-12T10:46:42.637Z,66.97
2024-03-12T10:51:45.839Z,69.87
2024-03-12T10:56:48.944Z,47.73
2024-03-12T11:01:51.520Z,76.90
2024-03-12T11:06:55.352Z,45.00
2024-03-12T11:11:58.083Z,66.13
2024-03-12T11:17:01.714Z,60.93
2024-03-12T11:22:13.346Z,72.57
2024-03-12T11:27:26.250Z,72.20
2024-03-12T11:32:30.767Z,68.10
2024-03-12T11:37:34.268Z,58.87
2024-03-12T11:42:36.721Z,49.13
2024-03-12T11:47:41.462Z,66.83
2024-03-12T11:52:44.447Z,63.40
2024-03-12T11:57:50.481Z,51.67
2024-03-12T12:02:53.411Z,62.90
2024-03-12T12:07:55.913Z,68.27
2024-03-12T12:12:58.811Z,68.60
2024-03-12T12:18:11.483Z,67.97
2024-03-12T12:23:14.443Z,55.07
2024-03-12T12:28:18.269Z,69.63
2024-03-12T12:33:21.371Z,47.77
2024-03-12T12:38:24.988Z,68.80
2024-03-12T12:43:27.544Z,68.83
2024-03-12T12:48:30.041Z,70.33
2024-03-12T12:53:32.537Z,69.53
2024-03-12T12:58:35.145Z,69.17
2024-03-12T13:03:42.390Z,64.33
2024-03-12T13:08:47.167Z,49.97
2024-03-12T13:13:53.447Z,55.60
2024-03-12T13:18:59.839Z,57.20
2024-03-12T13:24:04.766Z,65.20
2024-03-12T13:29:07.325Z,62.27
2024-03-12T13:34:09.883Z,66.70
2024-03-12T13:39:16.195Z,63.33
2024-03-12T13:44:18.931Z,54.23
2024-03-12T13:49:24.332Z,63.80
2024-03-12T13:54:28.471Z,36.87
2024-03-12T13:59:32.090Z,41.60
2024-03-12T14:04:37.169Z,43.23
2024-03-12T14:09:40.298Z,55.97
2024-03-12T14:14:42.930Z,47.07
2024-03-12T14:19:45.387Z,64.53
2024-03-12T14:24:47.899Z,55.27
2024-03-12T14:29:50.460Z,67.63
2024-03-12T14:34:53.803Z,67.23
2024-03-12T14:39:56.315Z,60.27
2024-03-12T14:44:58.890Z,65.90
2024-03-12T14:50:01.439Z,58.03
2024-03-12T14:55:04.742Z,75.13
2024-03-12T15:00:17.740Z,63.50
2024-03-12T15:05:21.686Z,76.23
2024-03-12T15:10:24.622Z,58.97
2024-03-12T15:15:27.597Z,59.00
2024-03-12T15:20:31.167Z,50.57
2024-03-12T15:25:34.254Z,49.57
2024-03-12T15:30:38.334Z,63.57
2024-03-12T15:35:41.404Z,62.63
2024-03-12T15:40:43.856Z,55.20
2024-03-12T15:45:46.607Z,53.63
2024-03-12T15:50:49.623Z,50.67
2024-03-12T15:55:52.106Z,66.00
2024-03-12T16:00:54.775Z,56.83
2024-03-12T16:05:57.631Z,59.80
2024-03-12T16:11:03.395Z,50.63
2024-03-12T16:16:07.145Z,64.37
2024-03-12T16:21:09.695Z,80.13
2024-03-12T16:26:12.050Z,63.73
2024-03-12T16:31:15.232Z,58.80
2024-03-12T16:36:19.268Z,58.53
2024-03-12T16:41:21.919Z,53.00
2024-03-12T16:46:24.905Z,66.70
2024-03-12T16:51:27.331Z,63.73
2024-03-12T16:56:33.677Z,61.43
2024-03-12T17:01:37.935Z,63.77
2024-03-12T17:06:46.551Z,67.33
2024-03-12T17:11:49.337Z,66.60
2024-03-12T17:16:56.773Z,68.00
2024-03-12T17:21:59.434Z,48.23
2024-03-12T17:27:05.820Z,62.00
2024-03-12T17:32:11.842Z,62.53
2024-03-12T17:37:17.013Z,63.13
2024-03-12T17:42:21.730Z,68.20
2024-03-12T17:47:25.808Z,72.07
2024-03-12T17:52:30.682Z,70.53
2024-03-12T17:57:34.511Z,80.53
2024-03-12T18:02:40.887Z,91.20
2024-03-12T18:07:48.722Z,60.80
2024-03-12T18:12:51.466Z,66.03
2024-03-12T18:17:54.287Z,82.23
2024-03-12T18:22:57.476Z,78.13
2024-03-12T18:28:00.079Z,71.27
2024-03-12T18:33:02.643Z,71.20
2024-03-12T18:38:06.771Z,69.00
2024-03-12T18:43:09.611Z,74.77
2024-03-12T18:48:12.806Z,86.20
2024-03-12T18:53:15.582Z,89.23
2024-03-12T18:58:18.821Z,72.00
2024-03-12T19:03:22.066Z,74.27
2024-03-12T19:08:26.925Z,83.43
2024-03-12T19:13:31.096Z,97.87
2024-03-12T19:18:34.794Z,86.63
2024-03-12T19:23:37.938Z,85.20
2024-03-12T19:28:44.211Z,66.83
2024-03-12T19:39:18.484Z,111.30
2024-03-12T19:44:21.192Z,88.93
2024-03-12T19:49:25.099Z,83.83
2024-03-12T19:54:28.057Z,86.27
2024-03-12T19:59:30.765Z,82.80
2024-03-12T20:04:33.302Z,56.03
2024-03-12T20:09:38.475Z,94.20
2024-03-12T20:14:41.877Z,79.77
2024-03-12T20:19:44.597Z,92.47
2024-03-12T20:24:47.280Z,91.70
2024-03-12T20:29:50.527Z,80.43
2024-03-12T20:34:53.123Z,108.37
2024-03-12T20:39:56.070Z,90.97
2024-03-12T20:44:58.461Z,76.70
2024-03-12T20:50:01.111Z,105.57
2024-03-12T20:55:05.230Z,108.17
2024-03-12T21:00:17.825Z,94.37
2024-03-12T21:05:20.729Z,62.77
2024-03-12T21:10:23.417Z,96.83
2024-03-12T21:15:26.168Z,102.43
2024-03-12T21:20:30.568Z,104.53
2024-03-12T21:25:34.921Z,82.13
2024-03-12T21:30:41.162Z,99.30
2024-03-12T21:35:43.734Z,95.43
2024-03-12T21:40:46.130Z,103.43
2024-03-12T21:45:48.795Z,97.00
2024-03-12T21:50:55.188Z,105.30
2024-03-12T21:55:57.649Z,103.20
2024-03-12T22:01:00.108Z,107.57
2024-03-12T22:06:02.664Z,128.50
2024-03-12T22:11:11.761Z,95.33
2024-03-12T22:16:19.067Z,84.40
2024-03-12T22:21:26.187Z,109.30
2024-03-12T22:26:30.219Z,97.17
2024-03-12T22:31:33.072Z,95.73
2024-03-12T22:36:35.626Z,100.47
2024-03-12T22:41:44.714Z,99.30
2024-03-12T22:46:47.447Z,92.23
2024-03-12T22:51:57.897Z,94.07
2024-03-12T22:57:00.480Z,100.67
2024-03-12T23:02:04.271Z,103.50
2024-03-12T23:07:08.046Z,76.70
2024-03-12T23:12:11.234Z,96.20
2024-03-12T23:17:15.883Z,88.53
2024-03-12T23:22:18.702Z,69.23
2024-03-12T23:27:21.260Z,62.27
2024-03-12T23:32:23.667Z,92.90
2024-03-12T23:37:27.307Z,78.47
2024-03-12T23:42:29.843Z,59.57
2024-03-12T23:47:32.301Z,55.27
2024-03-12T23:52:35.255Z,98.43
2024-03-12T23:57:38.295Z,93.63
